ACT        NSW        VIC        QLD        SA        WA        TAS        NT        INFO        CALC            by VK5ZD

Past Date/Time: (dd/mm/yyyy hh:mm or blank for current data)    

  Atmospheric Gas Attenuation - ITU Rec 676-11   --------------- dB/100km ---------------
VIC Stations Date Time Temp RH % AH g/m3 Dew Point Wind Direction Speed kph Gust kph Barometer mB Rainfall Since 9am 24GHz 47GHz 76GHz 122GHz 134GHz 241GHz
Aireys Inlet 08/05 11:20 14.6 66 8.26 8.3 32 41 1013.1 0 18.8 25.1 38.1 99.8 93.0 319.6
Ararat 08/05 09:00 11 97 9.71 10.6 11 1025.5 0.6 22.1 29.1 46.6 122.3 118.8 409.2
Avalon 08/05 11:20 16.3 64 8.88 9.5 28 35 1023.5 0 20.1 26.0 40.1 105.2 99.7 343.4
Bairnsdale 08/05 11:20 16.1 69 9.46 10.4 44 50 1019 0 21.3 26.8 42.3 111.1 107.2 369.6
Ballan (Cfa) 08/05 11:10 11.1 87 8.76 9.1 26 28 1013.1 0.2 20.1 27.0 41.8 109.9 104.1 358.0
Ballarat 08/05 11:20 11.1 92 9.27 9.9 28 37 1025.2 0.2 21.1 28.3 44.6 117.0 112.3 386.6
Ben Nevis 08/05 11:20 8.4 99 8.4 8.3 33 44 1013.1 0.6 19.4 27.2 41.8 109.6 102.7 352.8
Benalla 08/05 09:00 11.4 89 9.14 9.6 6 1022.5 0.1 20.9 27.9 43.7 114.8 109.8 377.9
Bendigo 08/05 11:20 15.5 69 9.12 9.8 22 28 1023.5 0 20.6 26.6 41.5 108.8 103.9 357.9
Cape Nelson 08/05 11:20 13.6 91 10.71 12.2 19 32 1026.3 0.2 24.1 30.0 49.4 129.9 129.0 445.3
Cape Otway 08/05 11:20 13.7 79 9.36 10.1 30 35 1024 0 21.2 27.6 43.5 114.0 109.7 377.8
Casterton 08/05 11:20 13.7 88 10.42 11.7 15 17 1026.9 0.4 23.5 29.5 48.1 126.4 124.7 430.5
Cerberus 08/05 11:20 14.9 74 9.43 10.3 17 22 1022.7 0.2 21.3 27.3 43.0 112.9 108.8 375.0
Charlton 08/05 11:20 16.1 69 9.46 10.4 13 17 1025.3 0 21.3 27.1 42.6 111.8 107.8 371.4
Coldstream 08/05 11:20 13.4 96 11.16 12.8 11 17 1023.4 1 25.1 30.8 51.4 135.1 135.6 468.3
Combienbar 08/05 11:20 9 85 7.5 6.6 17 22 1016.5 0 17.5 25.6 37.8 99.1 89.8 307.6
Cressy (Cfa) 08/05 11:10 14.8 80 10.13 11.5 33 39 1013.1 0 22.8 28.1 45.5 119.7 117.6 405.9
Dartmoor 08/05 11:20 13.5 92 10.76 12.2 15 26 1027.3 0.2 24.2 30.2 49.7 130.7 130.0 448.8
East Sale Airport 08/05 11:20 16.6 65 9.18 10 32 37 1018.8 0 20.7 26.2 40.9 107.4 102.8 354.4
Echuca 08/05 09:00 13 82 9.3 10.1 15 1024 0 21.1 27.7 43.6 114.4 109.8 378.3
Edenhope 08/05 11:20 13.3 86 9.94 11.1 15 19 1013.1 0 22.5 28.3 45.6 119.9 117.3 404.5
Eildon Fire Tower 08/05 11:20 9.8 98 9.09 9.5 24 32 1013.1 0 20.8 27.9 44.0 115.5 110.5 380.4
Essendon Airport 08/05 11:20 14.6 78 9.76 10.8 32 35 1023.5 0 22.0 28.0 44.6 117.1 113.8 392.4
Falls Creek 08/05 11:20 2.1 99 5.54 2 22 28 1019.4 0 13.5 24.4 32.9 85.8 70.3 238.4
Ferny Creek 08/05 11:20 10.1 99 9.36 9.9 6 7 1023.1 1.6 21.4 28.7 45.4 119.3 114.9 395.5
Frankston (Ballam Park) 08/05 11:20 15 75 9.62 10.6 11 20 1022.9 0.2 21.7 27.6 43.8 114.9 111.3 383.5
Gabo Island 08/05 11:20 15.1 82 10.58 12.1 72 87 1014 0.2 23.8 28.8 47.3 124.4 123.5 426.3
Geelong Racecourse 08/05 11:20 16.3 66 9.16 10.1 19 28 1023.6 0 20.6 26.5 41.2 108.2 103.4 356.2
Gelantipy 08/05 11:20 10.5 77 7.47 6.6 33 46 1017.8 0 17.3 25.2 37.0 97.0 87.7 300.7
Glenburn (Cfa) 08/05 11:10 13.2 80 9.19 9.8 19 24 1013.1 0 20.9 27.0 42.5 111.7 107.1 368.8
Hamilton 08/05 11:20 12.2 99 10.68 12 19 24 1026.8 0.6 24.1 30.5 50.2 131.9 131.0 452.2
Hogan Island 08/05 11:30 14.6 70 8.76 9.2 83 98 1015.5 0 19.9 26.0 40.1 105.3 99.7 343.0
Hopetoun Airport 08/05 11:20 15.9 71 9.61 10.6 33 39 1027.4 0 21.6 27.4 43.4 114.0 110.2 380.0
Horsham 08/05 11:20 13.9 79 9.47 10.3 30 32 1026.7 0 21.4 27.8 43.9 115.3 111.1 382.9
Hunters Hill 08/05 11:20 5.8 99 7.1 5.6 6 7 1013.1 0 16.7 25.7 37.5 98.3 87.7 299.9
Kerang 08/05 09:00 13.5 81 9.47 10.4 11 1013.1 0 21.5 27.4 43.5 114.3 110.5 380.8
Kilmore Gap 08/05 11:20 10.8 89 8.8 9.1 28 33 1023.8 0 20.2 27.5 42.7 111.9 106.0 364.5
Kyabram 08/05 11:20 16.3 70 9.71 10.8 20 28 1013.1 0 21.8 26.9 43.0 112.9 109.7 378.5
Lake Dartmouth 08/05 09:00 8 100 8.27 8 0 1013.1 0.4 19.2 27.1 41.4 108.7 101.4 348.2
Lake Eildon 08/05 09:00 11.4 90 9.24 9.8 0 1013.1 15 21.1 27.7 43.7 114.9 110.3 379.9
Lakes Entrance 08/05 09:00 15 74 9.49 10.4 13 1013.1 2 21.4 27.0 42.8 112.4 108.6 374.5
Latrobe Valley 08/05 11:20 15 73 9.36 10.2 28 32 1020.7 0 21.1 27.1 42.6 111.8 107.6 370.6
Laverton 08/05 11:20 15 80 10.26 11.6 22 26 1023.9 0 23.1 28.7 46.5 122.1 120.1 414.5
Longerenong 08/05 11:20 14.6 75 9.39 10.2 30 35 1013.1 0 21.2 26.9 42.6 111.9 107.8 371.7
Mallacoota 08/05 11:20 14.3 81 9.95 11.1 28 43 1014.7 0.4 22.5 28.0 45.1 118.7 116.1 400.3
Mangalore 08/05 11:20 15.8 64 8.61 9 24 28 1023 0 19.5 25.7 39.3 102.9 96.8 333.1
Maryborough 08/05 09:00 12.4 82 8.96 9.5 9 1013.1 1 20.4 26.9 42.0 110.3 105.1 361.6
Melbourne (Olympic Park) 08/05 11:20 15.4 73 9.59 10.6 9 11 1023.5 0 21.6 27.4 43.4 114.0 110.3 380.4
Melbourne Airport 08/05 11:20 15.4 76 9.99 11.2 32 41 1023.8 0 22.5 28.1 45.1 118.5 115.8 399.4
Mildura 08/05 11:20 15.8 66 8.88 9.5 19 26 1029.2 0 20.1 26.4 40.6 106.4 100.8 347.1
Moorabbin Airport 08/05 11:20 14.4 81 10.01 11.2 20 32 1023.4 0 22.6 28.4 45.8 120.2 117.5 405.4
Mortlake 08/05 11:20 13.3 100 11.55 13.3 28 33 1025.9 0.6 25.9 31.6 53.3 140.3 141.8 489.9
Mount Baw Baw 08/05 11:20 2.6 100 5.79 2.6 28 33 1013.1 1.4 14.0 24.4 33.5 87.4 72.9 247.6
Mount Buller 08/05 11:20 2.1 100 5.6 2.1 32 44 1013.1 0.4 13.6 24.2 32.9 85.9 70.7 240.0
Mount Gellibrand 08/05 11:20 13.6 86 10.12 11.4 35 44 1024 0 22.8 28.9 46.7 122.8 120.4 415.2
Mount Hotham 08/05 11:20 1.2 100 5.27 1.2 33 41 1013.1 0 12.9 23.9 31.9 83.2 67.0 226.8
Mount Hotham Airport 08/05 11:20 9.7 60 5.53 2.3 20 28 1019.2 0 13.2 22.4 29.9 77.8 63.7 216.1
Mount Moornapa 08/05 11:20 11.5 77 7.95 7.6 24 35 1013.1 0 18.3 25.5 38.3 100.4 92.6 317.9
Mount Nowa Nowa 08/05 11:20 12.6 75 8.3 8.3 17 22 1013.1 0 19.0 25.7 39.2 102.8 95.9 329.6
Mount William 08/05 11:20 6.4 100 7.46 6.4 43 56 1013.1 1.2 17.5 26.2 38.8 101.6 92.0 315.2
Mt Burnett (Cfa) 08/05 11:10 11.7 98 10.25 11.4 13 19 1013.1 0.4 23.2 29.3 47.9 126.0 124.2 428.5
Nhill Aerodrome 08/05 11:20 14.9 72 9.18 9.9 33 41 1027.5 0 20.8 27.1 42.2 110.7 105.9 364.6
Omeo 08/05 11:20 12.9 64 7.21 6.3 19 20 1019.8 0 16.7 24.2 35.0 91.6 81.9 280.5
Orbost 08/05 11:20 15.1 67 8.64 9 24 32 1018 0 19.6 25.8 39.5 103.7 97.7 336.1
Point Cook 08/05 11:20 14.9 75 9.56 10.5 28 33 1023.3 0 21.6 27.5 43.6 114.4 110.6 381.3
Port Fairy 08/05 11:20 14.2 89 10.87 12.4 28 35 1026 0.4 24.4 30.1 49.7 130.7 130.3 449.8
Portable Vpha (Delwp) 08/05 11:00 14.5 68 8.46 8.7 7 26 1013.1 0 19.3 25.5 38.9 102.0 95.7 329.1
Portable Vphb (Delwp) 08/05 07:10 10.5 97 9.41 10.1 7 22 1013.1 1.4 21.5 28.3 44.9 118.2 114.1 392.8
Portland Airport 08/05 11:20 13.6 95 11.18 12.8 26 30 1027 0.6 25.1 30.9 51.5 135.5 135.9 469.4
Pound Creek 08/05 11:20 14.9 71 9.05 9.7 28 32 1021.4 0.2 20.5 26.6 41.4 108.7 103.6 356.8
Puckapunyal West (Defence) 08/05 11:20 15.1 63 8.13 8.1 24 32 1013.1 0 18.5 24.8 37.3 97.8 90.7 311.7
Puckapunyal-Lyon Hill (Defence) 08/05 11:20 15.8 62 8.35 8.5 15 20 1013.1 0 19.0 24.9 37.8 99.2 92.7 318.8
Redesdale 08/05 11:20 16.1 66 9.05 9.9 17 20 1013.1 0 20.4 25.9 40.4 106.1 101.3 349.1
Rhyll 08/05 11:20 13.9 81 9.71 10.8 24 35 1022.8 0.2 21.9 28.1 44.7 117.5 114.1 393.3
Rutherglen 08/05 11:20 14 79 9.53 10.4 30 35 1013.1 0 21.6 27.4 43.5 114.3 110.6 381.2
Scoresby 08/05 11:20 14.1 84 10.19 11.4 17 19 1013.1 0.2 23.0 28.4 46.2 121.5 119.5 412.4
She Oaks 08/05 11:20 12.5 90 9.9 11 17 24 1024.4 0.6 22.4 28.9 46.4 122.0 119.0 410.3
Shepparton 08/05 11:20 15 76 9.75 10.8 15 17 1023.3 0 22.0 27.8 44.3 116.4 113.1 389.8
Stawell 08/05 11:20 15.5 72 9.52 10.5 20 24 1025.4 0 21.4 27.3 43.2 113.3 109.4 377.1
Swan Hill 08/05 11:20 15.4 69 9.07 9.7 33 39 1026.2 0 20.5 26.7 41.5 108.7 103.6 356.8
Tatura 08/05 11:20 15.7 74 9.9 11.1 19 20 1013.1 0 22.3 27.4 44.1 115.8 113.1 390.3
Trentham East (Cfa) 08/05 11:10 9.9 93 8.69 8.8 26 32 1013.1 0.2 20.0 27.2 42.2 110.8 104.8 360.2
Victoria Portable Aws N (Cfa) 08/05 11:10 15.9 70 9.48 10.5 19 26 1013.1 0 21.4 26.7 42.2 111.0 107.2 369.7
Viewbank 08/05 11:20 14.9 82 10.45 11.9 9 11 1023.4 0 23.5 29.0 47.3 124.4 122.9 424.2
Walpeup 08/05 11:20 16.2 73 10.07 11.5 26 32 1013.1 0 22.6 27.6 44.5 117.0 114.7 395.8
Wangaratta 08/05 11:20 15.4 71 9.33 10.2 22 26 1022 0 21.1 26.9 42.3 111.1 106.7 367.7
Warracknabeal Airport 08/05 11:20 15.6 71 9.44 10.4 30 32 1026.5 0 21.3 27.2 42.9 112.5 108.3 373.2
Warragul (Nilma North) 08/05 11:20 13.1 100 11.41 13.1 17 20 1022 2.6 25.6 31.3 52.6 138.5 139.7 482.5
Warrnambool 08/05 11:20 14.4 89 11 12.6 28 33 1026 0.2 24.7 30.3 50.1 131.9 131.8 455.1
Westmere 08/05 11:20 12.7 94 10.46 11.7 32 33 1025.8 0.4 23.6 29.9 48.8 128.4 126.9 437.7
Wilsons Promontory 08/05 11:20 13.9 74 8.87 9.3 83 87 1016.7 0 20.2 26.4 41.0 107.6 102.1 351.6
Wycheproof (Cfa) 08/05 11:10 15.6 68 9.04 9.8 26 32 1013.1 0 20.4 26.1 40.6 106.7 101.9 350.8
Yarram Airport 08/05 11:20 14.6 85 10.64 12.1 37 46 1018.8 0 23.9 29.3 48.1 126.5 125.6 433.6
Yarrawonga 08/05 11:20 15.2 72 9.35 10.2 30 37 1022.9 0 21.1 27.1 42.5 111.7 107.3 369.8

Last Refresh: 08-May-2026 11:02:56

Bureau of Meteorology